sensor_id;sensor_type;location;lat;lon;timestamp;pressure;altitude;pressure_sealevel;temperature;humidity
56198;BME280;42700;42.524;12.052;2023-05-22T00:00:06;96735.75;;;19.39;100.00
56198;BME280;42700;42.524;12.052;2023-05-22T00:02:32;96560.78;;;19.33;100.00
56198;BME280;42700;42.524;12.052;2023-05-22T00:04:58;97074.00;;;19.50;100.00
56198;BME280;42700;42.524;12.052;2023-05-22T00:07:24;96774.00;;;19.41;100.00
56198;BME280;42700;42.524;12.052;2023-05-22T00:09:51;96898.97;;;19.45;100.00
56198;BME280;42700;42.524;12.052;2023-05-22T00:12:18;96572.59;;;19.32;100.00
56198;BME280;42700;42.524;12.052;2023-05-22T00:14:43;97029.53;;;19.47;100.00
56198;BME280;42700;42.524;12.052;2023-05-22T00:17:08;96779.38;;;19.41;100.00
56198;BME280;42700;42.524;12.052;2023-05-22T00:19:34;96620.53;;;19.35;100.00
56198;BME280;42700;42.524;12.052;2023-05-22T00:22:00;96508.00;;;19.32;100.00
56198;BME280;42700;42.524;12.052;2023-05-22T00:24:25;95802.00;;;19.08;100.00
56198;BME280;42700;42.524;12.052;2023-05-22T00:26:51;96203.91;;;19.22;100.00
56198;BME280;42700;42.524;12.052;2023-05-22T00:29:16;96376.91;;;19.28;100.00
56198;BME280;42700;42.524;12.052;2023-05-22T00:31:42;95984.63;;;19.14;100.00
56198;BME280;42700;42.524;12.052;2023-05-22T00:34:07;96029.28;;;19.15;100.00
56198;BME280;42700;42.524;12.052;2023-05-22T00:36:33;96140.94;;;19.18;100.00
56198;BME280;42700;42.524;12.052;2023-05-22T00:38:58;95982.22;;;19.13;100.00
56198;BME280;42700;42.524;12.052;2023-05-22T00:41:24;96241.84;;;19.21;100.00
56198;BME280;42700;42.524;12.052;2023-05-22T00:43:50;95622.38;;;18.99;100.00
56198;BME280;42700;42.524;12.052;2023-05-22T00:46:15;96410.56;;;19.25;100.00
56198;BME280;42700;42.524;12.052;2023-05-22T00:48:45;96211.44;;;19.20;100.00
56198;BME280;42700;42.524;12.052;2023-05-22T00:51:11;95987.59;;;19.13;100.00
56198;BME280;42700;42.524;12.052;2023-05-22T00:53:37;95811.16;;;19.07;100.00
56198;BME280;42700;42.524;12.052;2023-05-22T00:56:03;96348.13;;;19.23;100.00
56198;BME280;42700;42.524;12.052;2023-05-22T00:58:28;96109.19;;;19.15;100.00
56198;BME280;42700;42.524;12.052;2023-05-22T01:00:54;95811.72;;;19.04;100.00
56198;BME280;42700;42.524;12.052;2023-05-22T01:03:20;96004.28;;;19.10;100.00
56198;BME280;42700;42.524;12.052;2023-05-22T01:05:50;96259.31;;;19.18;100.00
56198;BME280;42700;42.524;12.052;2023-05-22T01:08:16;96111.34;;;19.13;100.00
56198;BME280;42700;42.524;12.052;2023-05-22T01:10:42;96029.84;;;19.12;100.00
56198;BME280;42700;42.524;12.052;2023-05-22T01:16:00;95599.28;;;18.98;100.00
56198;BME280;42700;42.524;12.052;2023-05-22T01:18:31;95624.56;;;18.97;100.00
56198;BME280;42700;42.524;12.052;2023-05-22T01:21:02;95669.22;;;18.98;100.00
56198;BME280;42700;42.524;12.052;2023-05-22T01:26:12;95548.78;;;18.90;100.00
56198;BME280;42700;42.524;12.052;2023-05-22T01:28:48;95789.13;;;18.99;100.00
56198;BME280;42700;42.524;12.052;2023-05-22T01:31:30;95616.53;;;18.92;100.00
56198;BME280;42700;42.524;12.052;2023-05-22T01:33:57;95094.56;;;18.75;100.00
56198;BME280;42700;42.524;12.052;2023-05-22T01:36:28;95130.03;;;18.77;100.00
56198;BME280;42700;42.524;12.052;2023-05-22T01:38:55;94901.44;;;18.68;100.00
56198;BME280;42700;42.524;12.052;2023-05-22T01:41:23;94848.28;;;18.65;100.00
56198;BME280;42700;42.524;12.052;2023-05-22T01:43:48;94557.50;;;18.54;100.00
56198;BME280;42700;42.524;12.052;2023-05-22T01:46:14;94806.19;;;18.60;100.00
56198;BME280;42700;42.524;12.052;2023-05-22T01:48:39;94658.00;;;18.53;100.00
56198;BME280;42700;42.524;12.052;2023-05-22T01:51:11;94288.13;;;18.40;100.00
56198;BME280;42700;42.524;12.052;2023-05-22T01:56:06;94887.97;;;18.54;100.00
56198;BME280;42700;42.524;12.052;2023-05-22T01:58:55;94993.78;;;18.58;100.00
56198;BME280;42700;42.524;12.052;2023-05-22T02:01:23;95042.13;;;18.58;100.00
56198;BME280;42700;42.524;12.052;2023-05-22T02:03:50;95159.81;;;18.61;100.00
56198;BME280;42700;42.524;12.052;2023-05-22T02:06:20;95549.41;;;18.77;100.00
56198;BME280;42700;42.524;12.052;2023-05-22T02:08:47;95639.44;;;18.79;100.00
56198;BME280;42700;42.524;12.052;2023-05-22T02:11:13;95636.75;;;18.79;100.00
56198;BME280;42700;42.524;12.052;2023-05-22T02:13:40;95145.28;;;18.62;100.00
56198;BME280;42700;42.524;12.052;2023-05-22T02:16:06;95178.56;;;18.67;100.00
56198;BME280;42700;42.524;12.052;2023-05-22T02:18:31;95256.22;;;18.68;100.00
56198;BME280;42700;42.524;12.052;2023-05-22T02:20:57;95136.94;;;18.64;100.00
56198;BME280;42700;42.524;12.052;2023-05-22T02:23:23;95575.72;;;18.80;100.00
56198;BME280;42700;42.524;12.052;2023-05-22T02:25:49;95130.78;;;18.63;100.00
56198;BME280;42700;42.524;12.052;2023-05-22T02:28:14;95414.72;;;18.73;100.00
56198;BME280;42700;42.524;12.052;2023-05-22T02:30:40;95527.63;;;18.78;100.00
56198;BME280;42700;42.524;12.052;2023-05-22T02:33:05;95707.47;;;18.85;100.00
56198;BME280;42700;42.524;12.052;2023-05-22T02:35:31;95132.34;;;18.65;100.00
56198;BME280;42700;42.524;12.052;2023-05-22T02:37:57;95563.38;;;18.79;100.00
56198;BME280;42700;42.524;12.052;2023-05-22T02:40:22;95517.16;;;18.77;100.00
56198;BME280;42700;42.524;12.052;2023-05-22T02:42:48;95463.94;;;18.74;100.00
56198;BME280;42700;42.524;12.052;2023-05-22T02:45:13;95357.78;;;18.71;100.00
56198;BME280;42700;42.524;12.052;2023-05-22T02:47:39;95611.75;;;18.79;100.00
56198;BME280;42700;42.524;12.052;2023-05-22T02:50:04;95598.31;;;18.79;100.00
56198;BME280;42700;42.524;12.052;2023-05-22T02:52:30;95775.22;;;18.87;100.00
56198;BME280;42700;42.524;12.052;2023-05-22T02:54:55;95438.66;;;18.75;100.00
56198;BME280;42700;42.524;12.052;2023-05-22T02:57:21;95746.44;;;18.88;100.00
56198;BME280;42700;42.524;12.052;2023-05-22T02:59:47;95685.97;;;18.85;100.00
56198;BME280;42700;42.524;12.052;2023-05-22T03:02:12;95283.34;;;18.72;100.00
56198;BME280;42700;42.524;12.052;2023-05-22T03:04:39;96136.66;;;19.02;100.00
56198;BME280;42700;42.524;12.052;2023-05-22T03:07:06;95057.09;;;18.65;100.00
56198;BME280;42700;42.524;12.052;2023-05-22T03:09:31;95415.78;;;18.77;100.00
56198;BME280;42700;42.524;12.052;2023-05-22T03:11:57;95756.91;;;18.89;100.00
56198;BME280;42700;42.524;12.052;2023-05-22T03:14:22;95528.94;;;18.81;100.00
56198;BME280;42700;42.524;12.052;2023-05-22T03:16:48;96339.72;;;19.09;100.00
56198;BME280;42700;42.524;12.052;2023-05-22T03:19:14;96048.69;;;19.02;100.00
56198;BME280;42700;42.524;12.052;2023-05-22T03:21:40;95818.75;;;18.94;100.00
56198;BME280;42700;42.524;12.052;2023-05-22T03:24:08;95890.28;;;18.95;100.00
56198;BME280;42700;42.524;12.052;2023-05-22T03:26:34;96407.28;;;19.13;100.00
56198;BME280;42700;42.524;12.052;2023-05-22T03:28:59;96190.97;;;19.09;100.00
56198;BME280;42700;42.524;12.052;2023-05-22T03:31:26;96900.97;;;19.32;100.00
56198;BME280;42700;42.524;12.052;2023-05-22T03:33:52;96781.72;;;19.32;100.00
56198;BME280;42700;42.524;12.052;2023-05-22T03:36:18;96302.91;;;19.15;100.00
56198;BME280;42700;42.524;12.052;2023-05-22T03:38:44;95967.19;;;19.07;100.00
56198;BME280;42700;42.524;12.052;2023-05-22T03:41:09;95632.91;;;18.96;100.00
56198;BME280;42700;42.524;12.052;2023-05-22T03:43:36;96312.84;;;19.14;100.00
56198;BME280;42700;42.524;12.052;2023-05-22T03:46:02;96324.72;;;19.18;100.00
56198;BME280;42700;42.524;12.052;2023-05-22T03:48:27;96015.31;;;19.08;100.00
56198;BME280;42700;42.524;12.052;2023-05-22T03:50:53;95796.13;;;19.01;100.00
56198;BME280;42700;42.524;12.052;2023-05-22T03:53:19;96082.84;;;19.12;100.00
56198;BME280;42700;42.524;12.052;2023-05-22T03:55:45;96404.06;;;19.21;100.00
56198;BME280;42700;42.524;12.052;2023-05-22T03:58:10;96109.75;;;19.12;100.00
56198;BME280;42700;42.524;12.052;2023-05-22T04:00:36;96523.59;;;19.25;100.00
56198;BME280;42700;42.524;12.052;2023-05-22T04:03:02;96393.31;;;19.21;100.00
56198;BME280;42700;42.524;12.052;2023-05-22T04:05:28;95888.63;;;19.05;100.00
56198;BME280;42700;42.524;12.052;2023-05-22T04:07:54;96839.69;;;19.40;100.00
56198;BME280;42700;42.524;12.052;2023-05-22T04:10:20;96625.91;;;19.35;100.00
56198;BME280;42700;42.524;12.052;2023-05-22T04:12:47;96778.31;;;19.42;100.00
56198;BME280;42700;42.524;12.052;2023-05-22T04:15:13;96824.09;;;19.42;100.00
56198;BME280;42700;42.524;12.052;2023-05-22T04:17:39;95901.50;;;19.13;100.00
56198;BME280;42700;42.524;12.052;2023-05-22T04:20:06;95994.03;;;19.17;100.00
56198;BME280;42700;42.524;12.052;2023-05-22T04:22:32;97017.72;;;19.48;100.00
56198;BME280;42700;42.524;12.052;2023-05-22T04:24:58;96314.50;;;19.26;100.00
56198;BME280;42700;42.524;12.052;2023-05-22T04:27:23;96173.78;;;19.20;100.00
56198;BME280;42700;42.524;12.052;2023-05-22T04:29:50;96838.59;;;19.41;100.00
56198;BME280;42700;42.524;12.052;2023-05-22T04:32:16;96525.78;;;19.33;100.00
56198;BME280;42700;42.524;12.052;2023-05-22T04:34:49;97352.09;;;19.62;100.00
56198;BME280;42700;42.524;12.052;2023-05-22T04:37:17;96797.47;;;19.45;100.00
56198;BME280;42700;42.524;12.052;2023-05-22T04:39:44;97022.91;;;19.55;100.00
56198;BME280;42700;42.524;12.052;2023-05-22T04:42:13;96088.72;;;19.24;100.00
56198;BME280;42700;42.524;12.052;2023-05-22T04:44:43;96846.22;;;19.49;100.00
56198;BME280;42700;42.524;12.052;2023-05-22T04:47:08;96927.03;;;19.54;100.00
56198;BME280;42700;42.524;12.052;2023-05-22T04:49:39;97163.56;;;19.62;100.00
56198;BME280;42700;42.524;12.052;2023-05-22T04:52:04;97010.81;;;19.58;100.00
56198;BME280;42700;42.524;12.052;2023-05-22T04:54:31;97687.00;;;19.80;100.00
56198;BME280;42700;42.524;12.052;2023-05-22T04:56:57;97251.22;;;19.70;100.00
56198;BME280;42700;42.524;12.052;2023-05-22T04:59:22;97192.47;;;19.67;100.00
56198;BME280;42700;42.524;12.052;2023-05-22T05:01:51;97848.91;;;19.90;100.00
56198;BME280;42700;42.524;12.052;2023-05-22T05:04:16;97489.28;;;19.81;100.00
56198;BME280;42700;42.524;12.052;2023-05-22T05:06:42;96710.59;;;19.55;100.00
56198;BME280;42700;42.524;12.052;2023-05-22T05:09:07;96280.34;;;19.42;100.00
56198;BME280;42700;42.524;12.052;2023-05-22T05:11:33;96784.63;;;19.58;100.00
56198;BME280;42700;42.524;12.052;2023-05-22T05:13:59;96448.31;;;19.46;100.00
56198;BME280;42700;42.524;12.052;2023-05-22T05:16:24;96675.03;;;19.53;100.00
56198;BME280;42700;42.524;12.052;2023-05-22T05:18:50;97182.00;;;19.70;100.00
56198;BME280;42700;42.524;12.052;2023-05-22T05:21:16;96737.50;;;19.55;100.00
56198;BME280;42700;42.524;12.052;2023-05-22T05:23:42;96969.69;;;19.62;100.00
56198;BME280;42700;42.524;12.052;2023-05-22T05:26:08;97042.94;;;19.64;100.00
56198;BME280;42700;42.524;12.052;2023-05-22T05:28:33;96942.19;;;19.60;100.00
56198;BME280;42700;42.524;12.052;2023-05-22T05:30:59;96706.22;;;19.49;100.00
56198;BME280;42700;42.524;12.052;2023-05-22T05:33:24;96944.09;;;19.60;100.00
56198;BME280;42700;42.524;12.052;2023-05-22T05:35:50;96919.25;;;19.58;100.00
56198;BME280;42700;42.524;12.052;2023-05-22T05:38:17;96759.06;;;19.55;100.00
56198;BME280;42700;42.524;12.052;2023-05-22T05:40:45;97742.06;;;19.84;100.00
56198;BME280;42700;42.524;12.052;2023-05-22T05:43:11;98047.41;;;19.96;100.00
56198;BME280;42700;42.524;12.052;2023-05-22T05:45:39;98078.44;;;19.99;100.00
56198;BME280;42700;42.524;12.052;2023-05-22T05:48:05;97846.22;;;19.90;100.00
56198;BME280;42700;42.524;12.052;2023-05-22T05:50:31;98267.28;;;20.04;100.00
56198;BME280;42700;42.524;12.052;2023-05-22T05:52:56;98483.88;;;20.16;100.00
56198;BME280;42700;42.524;12.052;2023-05-22T05:55:22;98109.91;;;20.05;100.00
56198;BME280;42700;42.524;12.052;2023-05-22T05:57:48;98863.81;;;20.31;100.00
56198;BME280;42700;42.524;12.052;2023-05-22T06:00:13;98605.78;;;20.25;100.00
56198;BME280;42700;42.524;12.052;2023-05-22T06:02:39;98271.09;;;20.15;100.00
56198;BME280;42700;42.524;12.052;2023-05-22T06:05:04;98939.53;;;20.36;100.00
56198;BME280;42700;42.524;12.052;2023-05-22T06:07:30;98444.84;;;20.19;100.00
56198;BME280;42700;42.524;12.052;2023-05-22T06:09:56;98638.13;;;20.25;100.00
56198;BME280;42700;42.524;12.052;2023-05-22T06:12:22;99184.81;;;20.44;100.00
56198;BME280;42700;42.524;12.052;2023-05-22T06:14:48;98587.50;;;20.27;100.00
56198;BME280;42700;42.524;12.052;2023-05-22T06:17:13;99582.78;;;20.62;100.00
56198;BME280;42700;42.524;12.052;2023-05-22T06:19:39;99783.06;;;20.72;100.00
56198;BME280;42700;42.524;12.052;2023-05-22T06:22:05;98947.19;;;20.46;100.00
56198;BME280;42700;42.524;12.052;2023-05-22T06:24:30;98925.22;;;20.42;100.00
56198;BME280;42700;42.524;12.052;2023-05-22T06:26:56;99541.31;;;20.63;100.00
56198;BME280;42700;42.524;12.052;2023-05-22T06:29:22;99638.09;;;20.66;100.00
56198;BME280;42700;42.524;12.052;2023-05-22T06:31:48;100495.47;;;20.98;100.00
56198;BME280;42700;42.524;12.052;2023-05-22T06:34:13;100486.66;;;21.05;100.00
56198;BME280;42700;42.524;12.052;2023-05-22T06:36:39;100158.91;;;20.97;100.00
56198;BME280;42700;42.524;12.052;2023-05-22T06:39:04;100295.06;;;21.03;100.00
56198;BME280;42700;42.524;12.052;2023-05-22T06:41:31;99818.56;;;20.91;100.00
56198;BME280;42700;42.524;12.052;2023-05-22T06:43:57;101259.03;;;21.42;100.00
56198;BME280;42700;42.524;12.052;2023-05-22T06:46:23;101802.78;;;21.67;100.00
56198;BME280;42700;42.524;12.052;2023-05-22T06:48:48;102211.38;;;21.85;100.00
56198;BME280;42700;42.524;12.052;2023-05-22T06:51:14;102503.38;;;21.98;100.00
56198;BME280;42700;42.524;12.052;2023-05-22T06:53:40;105045.31;;;22.94;100.00
56198;BME280;42700;42.524;12.052;2023-05-22T06:56:05;105123.53;;;23.21;100.00
56198;BME280;42700;42.524;12.052;2023-05-22T06:58:31;105838.66;;;23.52;100.00
56198;BME280;42700;42.524;12.052;2023-05-22T07:00:57;106772.44;;;23.97;100.00
56198;BME280;42700;42.524;12.052;2023-05-22T07:03:23;106796.44;;;24.12;100.00
56198;BME280;42700;42.524;12.052;2023-05-22T07:05:49;106233.06;;;24.07;100.00
56198;BME280;42700;42.524;12.052;2023-05-22T07:08:15;106033.22;;;23.99;100.00
56198;BME280;42700;42.524;12.052;2023-05-22T07:10:40;107206.22;;;24.42;100.00
56198;BME280;42700;42.524;12.052;2023-05-22T07:13:06;106119.53;;;24.14;100.00
56198;BME280;42700;42.524;12.052;2023-05-22T07:15:31;105846.41;;;24.04;100.00
56198;BME280;42700;42.524;12.052;2023-05-22T07:17:57;106900.81;;;24.38;100.00
56198;BME280;42700;42.524;12.052;2023-05-22T07:20:22;105167.69;;;23.75;100.00
56198;BME280;42700;42.524;12.052;2023-05-22T07:22:50;105736.16;;;23.98;100.00
56198;BME280;42700;42.524;12.052;2023-05-22T07:25:15;106781.16;;;24.38;100.00
56198;BME280;42700;42.524;12.052;2023-05-22T07:27:41;107796.81;;;24.81;100.00
56198;BME280;42700;42.524;12.052;2023-05-22T07:30:07;105679.03;;;24.19;100.00
56198;BME280;42700;42.524;12.052;2023-05-22T07:32:32;107192.00;;;24.68;100.00
56198;BME280;42700;42.524;12.052;2023-05-22T07:34:58;108466.19;;;25.13;100.00
56198;BME280;42700;42.524;12.052;2023-05-22T07:37:23;108320.97;;;25.08;100.00
56198;BME280;42700;42.524;12.052;2023-05-22T07:39:49;107571.34;;;25.00;100.00
56198;BME280;42700;42.524;12.052;2023-05-22T07:42:15;109166.38;;;25.47;100.00
56198;BME280;42700;42.524;12.052;2023-05-22T07:44:40;108664.94;;;25.32;100.00
56198;BME280;42700;42.524;12.052;2023-05-22T07:47:06;110298.66;;;26.03;100.00
56198;BME280;42700;42.524;12.052;2023-05-22T07:49:32;110194.13;;;26.07;100.00
56198;BME280;42700;42.524;12.052;2023-05-22T07:51:57;110017.59;;;26.03;100.00
56198;BME280;42700;42.524;12.052;2023-05-22T07:54:23;108337.84;;;25.47;100.00
56198;BME280;42700;42.524;12.052;2023-05-22T07:56:48;109995.72;;;26.00;100.00
56198;BME280;42700;42.524;12.052;2023-05-22T07:59:14;108901.84;;;25.72;100.00
56198;BME280;42700;42.524;12.052;2023-05-22T08:01:40;109676.44;;;25.92;100.00
56198;BME280;42700;42.524;12.052;2023-05-22T08:04:08;110101.34;;;26.07;100.00
56198;BME280;42700;42.524;12.052;2023-05-22T08:06:34;110288.91;;;26.20;100.00
56198;BME280;42700;42.524;12.052;2023-05-22T08:09:00;110254.47;;;26.28;100.00
56198;BME280;42700;42.524;12.052;2023-05-22T08:11:27;110773.50;;;26.44;100.00
56198;BME280;42700;42.524;12.052;2023-05-22T08:13:52;109669.28;;;26.11;100.00
56198;BME280;42700;42.524;12.052;2023-05-22T08:16:18;110267.28;;;26.36;100.00
56198;BME280;42700;42.524;12.052;2023-05-22T08:18:44;111325.00;;;26.68;100.00
56198;BME280;42700;42.524;12.052;2023-05-22T08:21:09;108773.63;;;25.84;100.00
56198;BME280;42700;42.524;12.052;2023-05-22T08:23:35;110924.72;;;26.49;100.00
56198;BME280;42700;42.524;12.052;2023-05-22T08:26:02;111154.34;;;26.57;100.00
56198;BME280;42700;42.524;12.052;2023-05-22T08:28:28;110872.03;;;26.53;100.00
56198;BME280;42700;42.524;12.052;2023-05-22T08:30:53;110724.47;;;26.50;100.00
56198;BME280;42700;42.524;12.052;2023-05-22T08:33:19;111677.06;;;26.83;100.00
56198;BME280;42700;42.524;12.052;2023-05-22T08:35:45;112021.16;;;26.99;100.00
56198;BME280;42700;42.524;12.052;2023-05-22T08:38:10;110297.34;;;26.37;100.00
56198;BME280;42700;42.524;12.052;2023-05-22T08:40:36;111740.44;;;26.98;100.00
56198;BME280;42700;42.524;12.052;2023-05-22T08:43:05;109853.19;;;26.30;100.00
56198;BME280;42700;42.524;12.052;2023-05-22T08:45:34;112494.94;;;27.16;100.00
56198;BME280;42700;42.524;12.052;2023-05-22T08:48:03;113668.25;;;27.56;100.00
56198;BME280;42700;42.524;12.052;2023-05-22T08:50:32;111698.53;;;26.99;100.00
56198;BME280;42700;42.524;12.052;2023-05-22T08:52:59;113841.56;;;27.70;100.00
56198;BME280;42700;42.524;12.052;2023-05-22T08:55:28;110220.13;;;26.49;100.00
56198;BME280;42700;42.524;12.052;2023-05-22T08:57:55;113763.78;;;27.67;100.00
56198;BME280;42700;42.524;12.052;2023-05-22T09:00:21;113906.78;;;27.91;100.00
56198;BME280;42700;42.524;12.052;2023-05-22T09:02:46;113794.94;;;27.84;100.00
56198;BME280;42700;42.524;12.052;2023-05-22T09:05:13;112980.75;;;27.49;100.00
56198;BME280;42700;42.524;12.052;2023-05-22T09:07:40;114270.72;;;27.98;100.00
56198;BME280;42700;42.524;12.052;2023-05-22T09:10:06;114597.06;;;28.14;100.00
56198;BME280;42700;42.524;12.052;2023-05-22T09:12:31;114068.59;;;28.07;100.00
56198;BME280;42700;42.524;12.052;2023-05-22T09:15:07;112474.63;;;27.52;100.00
56198;BME280;42700;42.524;12.052;2023-05-22T09:17:34;115683.47;;;28.56;100.00
56198;BME280;42700;42.524;12.052;2023-05-22T09:20:00;115729.38;;;28.79;100.00
56198;BME280;42700;42.524;12.052;2023-05-22T09:22:33;114630.56;;;28.35;100.00
56198;BME280;42700;42.524;12.052;2023-05-22T09:24:59;113399.75;;;28.01;100.00
56198;BME280;42700;42.524;12.052;2023-05-22T09:27:25;114443.47;;;28.26;100.00
56198;BME280;42700;42.524;12.052;2023-05-22T09:29:51;114666.09;;;28.34;100.00
56198;BME280;42700;42.524;12.052;2023-05-22T09:32:17;111526.28;;;27.28;100.00
56198;BME280;42700;42.524;12.052;2023-05-22T09:34:43;114715.44;;;28.34;100.00
56198;BME280;42700;42.524;12.052;2023-05-22T09:37:11;116311.19;;;28.98;100.00
56198;BME280;42700;42.524;12.052;2023-05-22T09:39:37;116026.34;;;29.06;100.00
56198;BME280;42700;42.524;12.052;2023-05-22T09:42:04;116772.66;;;29.27;100.00
56198;BME280;42700;42.524;12.052;2023-05-22T09:44:30;116176.28;;;29.14;100.00
56198;BME280;42700;42.524;12.052;2023-05-22T09:46:56;117158.91;;;29.43;100.00
56198;BME280;42700;42.524;12.052;2023-05-22T09:49:21;116606.53;;;29.33;100.00
56198;BME280;42700;42.524;12.052;2023-05-22T09:51:47;115345.13;;;28.89;100.00
56198;BME280;42700;42.524;12.052;2023-05-22T09:54:13;116489.25;;;29.32;100.00
56198;BME280;42700;42.524;12.052;2023-05-22T09:56:39;116891.59;;;29.80;100.00
56198;BME280;42700;42.524;12.052;2023-05-22T09:59:07;118504.97;;;30.41;100.00
56198;BME280;42700;42.524;12.052;2023-05-22T10:01:33;118166.41;;;30.33;100.00
56198;BME280;42700;42.524;12.052;2023-05-22T10:03:59;118167.44;;;30.11;100.00
56198;BME280;42700;42.524;12.052;2023-05-22T10:06:26;119370.88;;;30.24;100.00
56198;BME280;42700;42.524;12.052;2023-05-22T10:09:02;120303.28;;;30.36;100.00
56198;BME280;42700;42.524;12.052;2023-05-22T10:11:30;121047.41;;;30.51;100.00
56198;BME280;42700;42.524;12.052;2023-05-22T10:13:57;122376.72;;;30.88;100.00
56198;BME280;42700;42.524;12.052;2023-05-22T10:16:24;119814.25;;;29.87;100.00
56198;BME280;42700;42.524;12.052;2023-05-22T10:18:51;121498.28;;;30.56;100.00
56198;BME280;42700;42.524;12.052;2023-05-22T10:21:17;120426.53;;;30.75;100.00
56198;BME280;42700;42.524;12.052;2023-05-22T10:23:44;116354.75;;;29.62;100.00
56198;BME280;42700;42.524;12.052;2023-05-22T10:26:10;118053.81;;;29.66;100.00
56198;BME280;42700;42.524;12.052;2023-05-22T10:28:41;118151.97;;;29.74;100.00
56198;BME280;42700;42.524;12.052;2023-05-22T10:31:11;118162.03;;;29.96;100.00
56198;BME280;42700;42.524;12.052;2023-05-22T10:33:43;119153.34;;;30.51;100.00
56198;BME280;42700;42.524;12.052;2023-05-22T10:39:02;117936.91;;;30.40;100.00
56198;BME280;42700;42.524;12.052;2023-05-22T10:41:32;120182.16;;;30.99;100.00
56198;BME280;42700;42.524;12.052;2023-05-22T10:43:59;120687.16;;;31.21;100.00
56198;BME280;42700;42.524;12.052;2023-05-22T10:46:26;121544.28;;;31.67;100.00
56198;BME280;42700;42.524;12.052;2023-05-22T10:48:56;120062.41;;;31.23;100.00
56198;BME280;42700;42.524;12.052;2023-05-22T10:51:21;118035.03;;;30.40;100.00
56198;BME280;42700;42.524;12.052;2023-05-22T10:53:59;118440.75;;;30.56;100.00
56198;BME280;42700;42.524;12.052;2023-05-22T10:56:35;115205.00;;;29.59;100.00
56198;BME280;42700;42.524;12.052;2023-05-22T10:59:02;116655.63;;;30.33;100.00
56198;BME280;42700;42.524;12.052;2023-05-22T11:01:32;114694.34;;;29.77;100.00
56198;BME280;42700;42.524;12.052;2023-05-22T11:06:39;117832.56;;;31.08;100.00
56198;BME280;42700;42.524;12.052;2023-05-22T11:12:12;119200.59;;;31.97;100.00
56198;BME280;42700;42.524;12.052;2023-05-22T11:14:40;120843.34;;;31.80;100.00
56198;BME280;42700;42.524;12.052;2023-05-22T11:17:06;122868.34;;;32.11;100.00
56198;BME280;42700;42.524;12.052;2023-05-22T11:19:32;122162.00;;;31.79;100.00
56198;BME280;42700;42.524;12.052;2023-05-22T11:22:01;117204.50;;;30.28;100.00
56198;BME280;42700;42.524;12.052;2023-05-22T11:24:31;116496.59;;;30.29;100.00
56198;BME280;42700;42.524;12.052;2023-05-22T11:27:03;113031.56;;;29.57;100.00
56198;BME280;42700;42.524;12.052;2023-05-22T11:29:30;110304.13;;;29.00;100.00
56198;BME280;42700;42.524;12.052;2023-05-22T11:31:56;106953.09;;;27.96;100.00
56198;BME280;42700;42.524;12.052;2023-05-22T11:34:23;103877.50;;;27.06;100.00
56198;BME280;42700;42.524;12.052;2023-05-22T11:36:48;103239.97;;;26.78;100.00
56198;BME280;42700;42.524;12.052;2023-05-22T11:39:14;103266.66;;;26.84;100.00
56198;BME280;42700;42.524;12.052;2023-05-22T11:41:39;101065.53;;;26.25;100.00
56198;BME280;42700;42.524;12.052;2023-05-22T11:44:06;102712.22;;;26.65;100.00
56198;BME280;42700;42.524;12.052;2023-05-22T11:46:32;104778.50;;;27.26;100.00
56198;BME280;42700;42.524;12.052;2023-05-22T11:48:57;107033.75;;;27.86;100.00
56198;BME280;42700;42.524;12.052;2023-05-22T11:51:23;105916.41;;;27.56;100.00
56198;BME280;42700;42.524;12.052;2023-05-22T11:53:48;110371.69;;;28.75;100.00
56198;BME280;42700;42.524;12.052;2023-05-22T11:56:14;109547.94;;;28.59;100.00
56198;BME280;42700;42.524;12.052;2023-05-22T11:58:39;111249.31;;;29.12;100.00
56198;BME280;42700;42.524;12.052;2023-05-22T12:01:05;115202.94;;;30.42;100.00
56198;BME280;42700;42.524;12.052;2023-05-22T12:03:30;113856.44;;;30.29;100.00
56198;BME280;42700;42.524;12.052;2023-05-22T12:05:56;107326.44;;;28.52;100.00
56198;BME280;42700;42.524;12.052;2023-05-22T12:08:23;113948.41;;;30.52;100.00
56198;BME280;42700;42.524;12.052;2023-05-22T12:10:48;117889.00;;;31.63;100.00
56198;BME280;42700;42.524;12.052;2023-05-22T12:13:21;114870.88;;;30.96;100.00
56198;BME280;42700;42.524;12.052;2023-05-22T12:15:46;114819.19;;;30.92;100.00
56198;BME280;42700;42.524;12.052;2023-05-22T12:18:12;118358.91;;;32.22;100.00
56198;BME280;42700;42.524;12.052;2023-05-22T12:20:40;118881.44;;;32.67;100.00
56198;BME280;42700;42.524;12.052;2023-05-22T12:23:09;119554.22;;;32.63;100.00
56198;BME280;42700;42.524;12.052;2023-05-22T12:25:35;119072.66;;;31.96;100.00
56198;BME280;42700;42.524;12.052;2023-05-22T12:28:06;120216.19;;;31.82;100.00
56198;BME280;42700;42.524;12.052;2023-05-22T12:30:38;121084.66;;;31.58;100.00
56198;BME280;42700;42.524;12.052;2023-05-22T12:33:06;120923.03;;;30.83;100.00
56198;BME280;42700;42.524;12.052;2023-05-22T12:35:32;121975.91;;;31.08;100.00
56198;BME280;42700;42.524;12.052;2023-05-22T12:37:57;121230.75;;;30.60;100.00
56198;BME280;42700;42.524;12.052;2023-05-22T12:40:23;120759.91;;;30.50;100.00
56198;BME280;42700;42.524;12.052;2023-05-22T12:42:48;123434.03;;;31.36;100.00
56198;BME280;42700;42.524;12.052;2023-05-22T12:45:14;123149.03;;;31.27;100.00
56198;BME280;42700;42.524;12.052;2023-05-22T12:47:41;121715.25;;;30.57;100.00